Time;durP1;ratioP1;P1;durP2;ratioP2;P2;SDS_P1;SDS_P2;PMS_P1;PMS_P2;Temp;Humidity;BMP_temperature;BMP_pressure;BME280_temperature;BME280_humidity;BME280_pressure;Samples;Min_cycle;Max_cycle;Signal;HPM_P1;HPM_P2
2021/08/15 00:02:02;;;;;;;3.17;1.60;;;22.50;71.70;;;;;;5091519;28;20146;-37
2021/08/15 00:04:28;;;;;;;1.85;1.48;;;22.50;71.70;;;;;;5092342;28;20056;-38
2021/08/15 00:06:53;;;;;;;1.92;1.40;;;22.50;71.70;;;;;;5092326;28;20130;-37
2021/08/15 00:09:19;;;;;;;2.50;1.58;;;22.50;71.70;;;;;;5091959;28;20048;-38
2021/08/15 00:11:47;;;;;;;2.10;1.52;;;22.50;71.70;;;;;;5091915;28;20055;-38
2021/08/15 00:14:13;;;;;;;2.00;1.58;;;22.50;71.70;;;;;;5090867;28;20067;-37
2021/08/15 00:16:38;;;;;;;1.88;1.50;;;22.50;71.70;;;;;;5091848;28;20048;-37
2021/08/15 00:19:05;;;;;;;2.40;1.50;;;22.50;71.70;;;;;;5091534;28;20133;-37
2021/08/15 00:21:32;;;;;;;1.75;1.40;;;22.50;71.70;;;;;;5091456;28;20043;-38
2021/08/15 00:23:59;;;;;;;2.45;1.77;;;22.50;71.70;;;;;;5091866;28;20506;-37
2021/08/15 00:26:24;;;;;;;1.98;1.55;;;22.50;71.70;;;;;;5092096;28;20427;-37
2021/08/15 00:28:51;;;;;;;2.20;1.40;;;22.50;71.70;;;;;;5091986;28;20044;-37
2021/08/15 00:31:16;;;;;;;2.00;1.38;;;22.40;71.70;;;;;;5090600;28;20127;-38
2021/08/15 00:33:42;;;;;;;2.33;1.60;;;22.40;71.70;;;;;;5091132;28;20132;-36
2021/08/15 00:36:08;;;;;;;2.40;1.70;;;22.50;71.70;;;;;;5091705;28;20047;-38
2021/08/15 00:38:34;;;;;;;2.55;1.60;;;22.50;71.70;;;;;;5091518;28;20090;-38
2021/08/15 00:41:01;;;;;;;3.33;1.88;;;22.50;71.80;;;;;;5091061;28;20036;-37
2021/08/15 00:43:28;;;;;;;1.90;1.60;;;22.50;71.80;;;;;;5091813;28;20062;-37
2021/08/15 00:45:54;;;;;;;1.95;1.65;;;22.50;71.80;;;;;;5091490;28;20504;-37
2021/08/15 00:48:20;;;;;;;1.75;1.45;;;22.50;71.80;;;;;;5090814;28;20074;-37
2021/08/15 00:50:46;;;;;;;1.80;1.50;;;22.50;71.80;;;;;;5091143;28;20044;-37
2021/08/15 00:53:12;;;;;;;1.73;1.35;;;22.50;71.80;;;;;;5091608;28;20040;-37
2021/08/15 00:55:38;;;;;;;1.75;1.48;;;22.50;71.80;;;;;;5091448;28;20054;-37
2021/08/15 00:58:07;;;;;;;2.10;1.77;;;22.50;71.80;;;;;;5090210;28;20087;-37
2021/08/15 01:00:36;;;;;;;2.25;1.52;;;22.50;71.80;;;;;;5090562;28;20047;-36
2021/08/15 01:03:02;;;;;;;2.60;1.80;;;22.40;71.80;;;;;;5088961;28;20040;-37
2021/08/15 01:05:29;;;;;;;1.98;1.70;;;22.50;71.80;;;;;;5091648;28;20150;-35
2021/08/15 01:07:55;;;;;;;2.88;1.83;;;22.50;71.80;;;;;;5091171;28;20388;-38
2021/08/15 01:10:21;;;;;;;1.90;1.63;;;22.40;71.80;;;;;;5091471;28;20051;-37
2021/08/15 01:12:47;;;;;;;2.13;1.50;;;22.40;71.80;;;;;;5093243;28;20073;-38
2021/08/15 01:15:14;;;;;;;2.58;1.50;;;22.50;71.80;;;;;;5095127;28;20040;-37
2021/08/15 01:17:41;;;;;;;1.63;1.48;;;22.40;71.80;;;;;;5095450;28;20066;-36
2021/08/15 01:20:08;;;;;;;3.47;1.75;;;22.40;71.80;;;;;;5094670;28;20399;-38
2021/08/15 01:22:41;;;;;;;1.95;1.50;;;22.40;71.80;;;;;;5094310;28;20072;-35
2021/08/15 01:25:08;;;;;;;2.10;1.67;;;22.40;71.80;;;;;;5095203;28;20055;-37
2021/08/15 01:27:38;;;;;;;2.72;1.42;;;22.40;71.80;;;;;;5095091;28;20066;-38
2021/08/15 01:30:07;;;;;;;1.88;1.50;;;22.40;71.80;;;;;;5094760;28;20036;-37
2021/08/15 01:32:32;;;;;;;2.03;1.55;;;22.40;71.80;;;;;;5094291;28;20040;-38
2021/08/15 01:35:02;;;;;;;2.05;1.67;;;22.30;71.70;;;;;;5094811;28;20139;-37
2021/08/15 01:37:27;;;;;;;2.05;1.67;;;22.40;71.80;;;;;;5094796;28;20051;-37
2021/08/15 01:39:53;;;;;;;1.60;1.48;;;22.40;71.80;;;;;;5094614;28;20060;-37
2021/08/15 01:42:19;;;;;;;1.40;1.25;;;22.40;71.80;;;;;;5094299;28;20543;-37
2021/08/15 01:44:45;;;;;;;1.77;1.48;;;22.40;71.80;;;;;;5095249;28;20048;-37
2021/08/15 01:47:10;;;;;;;1.85;1.50;;;22.40;71.80;;;;;;5094102;28;20043;-37
2021/08/15 01:49:36;;;;;;;2.05;1.42;;;22.40;71.80;;;;;;5094879;28;20044;-38
2021/08/15 01:52:02;;;;;;;2.83;1.80;;;22.40;71.80;;;;;;5093754;28;20048;-37
2021/08/15 01:54:29;;;;;;;2.17;1.80;;;22.40;71.80;;;;;;5095051;28;20044;-37
2021/08/15 01:56:54;;;;;;;2.70;1.58;;;22.40;71.80;;;;;;5094231;28;20058;-35
2021/08/15 01:59:20;;;;;;;2.35;1.70;;;22.40;71.90;;;;;;5094114;28;20439;-36
2021/08/15 02:01:46;;;;;;;2.35;1.73;;;22.40;71.80;;;;;;5093639;28;20495;-37
2021/08/15 02:04:13;;;;;;;2.22;1.73;;;22.40;71.80;;;;;;5094460;28;20048;-36
2021/08/15 02:06:38;;;;;;;1.75;1.50;;;22.40;71.90;;;;;;5093912;28;20047;-37
2021/08/15 02:09:04;;;;;;;2.88;1.50;;;22.40;71.90;;;;;;5094416;28;20384;-37
2021/08/15 02:11:30;;;;;;;2.15;1.60;;;22.40;71.90;;;;;;5094210;28;20040;-37
2021/08/15 02:13:56;;;;;;;1.65;1.52;;;22.40;71.90;;;;;;5093785;28;20135;-37
2021/08/15 02:16:21;;;;;;;2.22;1.65;;;22.40;71.90;;;;;;5094415;28;20044;-38
2021/08/15 02:18:47;;;;;;;2.17;1.58;;;22.40;71.90;;;;;;5093991;28;20059;-37
2021/08/15 02:21:13;;;;;;;2.33;1.83;;;22.40;71.90;;;;;;5093327;28;20067;-37
2021/08/15 02:23:38;;;;;;;2.53;1.50;;;22.40;71.90;;;;;;5093157;28;20523;-37
2021/08/15 02:26:04;;;;;;;1.98;1.50;;;22.40;71.90;;;;;;5094656;28;20044;-38
2021/08/15 02:28:30;;;;;;;1.45;1.30;;;22.40;71.90;;;;;;5093913;28;20040;-37
2021/08/15 02:30:56;;;;;;;2.47;1.70;;;22.40;71.90;;;;;;5093049;28;20070;-37
2021/08/15 02:33:22;;;;;;;2.17;1.42;;;22.40;71.90;;;;;;5093771;28;20105;-37
2021/08/15 02:35:47;;;;;;;2.78;1.73;;;22.40;71.90;;;;;;5093796;28;20458;-37
2021/08/15 02:38:13;;;;;;;1.92;1.50;;;22.40;71.90;;;;;;5093006;28;20541;-37
2021/08/15 02:40:40;;;;;;;1.63;1.25;;;22.40;71.90;;;;;;5093756;28;20047;-36
2021/08/15 02:43:06;;;;;;;1.42;1.33;;;22.40;72.00;;;;;;5093071;28;20040;-36
2021/08/15 02:45:33;;;;;;;2.20;1.42;;;22.40;72.00;;;;;;5093381;28;20443;-35
2021/08/15 02:47:58;;;;;;;1.92;1.45;;;22.40;72.00;;;;;;5093399;28;20051;-36
2021/08/15 02:50:24;;;;;;;2.80;1.60;;;22.40;72.00;;;;;;5093211;28;20040;-37
2021/08/15 02:52:50;;;;;;;1.95;1.40;;;22.40;72.00;;;;;;5093110;28;20107;-37
2021/08/15 02:55:17;;;;;;;1.80;1.33;;;22.40;72.00;;;;;;5093085;28;20507;-37
2021/08/15 02:57:43;;;;;;;2.53;1.50;;;22.40;72.00;;;;;;5092756;28;20048;-38
2021/08/15 03:00:11;;;;;;;2.00;1.50;;;22.40;72.00;;;;;;5092927;28;20047;-37
2021/08/15 03:02:38;;;;;;;1.77;1.35;;;22.40;72.00;;;;;;5092790;28;20078;-37
2021/08/15 03:05:05;;;;;;;2.53;1.50;;;22.40;72.00;;;;;;5093397;28;20039;-37
2021/08/15 03:07:33;;;;;;;2.03;1.40;;;22.40;72.00;;;;;;5093140;28;20040;-37
2021/08/15 03:09:59;;;;;;;2.63;1.52;;;22.40;72.00;;;;;;5092343;28;20488;-37
2021/08/15 03:12:24;;;;;;;1.73;1.30;;;22.40;72.00;;;;;;5091569;28;20129;-37
2021/08/15 03:14:50;;;;;;;1.75;1.55;;;22.40;72.00;;;;;;5092774;28;20040;-37
2021/08/15 03:17:16;;;;;;;1.30;1.20;;;22.40;72.00;;;;;;5092723;28;20039;-36
2021/08/15 03:19:42;;;;;;;2.22;1.60;;;22.40;72.00;;;;;;5092660;28;20043;-36
2021/08/15 03:22:08;;;;;;;2.15;1.50;;;22.30;72.00;;;;;;5093027;28;20407;-38
2021/08/15 03:24:35;;;;;;;2.17;1.38;;;22.40;72.00;;;;;;5092308;28;20040;-37
2021/08/15 03:27:01;;;;;;;1.48;1.30;;;22.40;72.00;;;;;;5092186;28;20051;-37
2021/08/15 03:29:27;;;;;;;2.50;1.65;;;22.40;72.10;;;;;;5092143;28;20048;-36
2021/08/15 03:31:53;;;;;;;2.08;1.33;;;22.30;72.00;;;;;;5091621;28;20044;-38
2021/08/15 03:34:20;;;;;;;1.95;1.60;;;22.30;72.00;;;;;;5091399;28;20124;-37
2021/08/15 03:36:47;;;;;;;1.63;1.20;;;22.30;72.00;;;;;;5092714;28;20044;-37
2021/08/15 03:39:13;;;;;;;2.50;1.58;;;22.40;72.00;;;;;;5092121;28;20080;-37
2021/08/15 03:41:39;;;;;;;1.50;1.30;;;22.30;72.00;;;;;;5091576;28;20048;-37
2021/08/15 03:44:05;;;;;;;1.58;1.30;;;22.30;72.00;;;;;;5092070;28;20039;-37
2021/08/15 03:46:31;;;;;;;2.03;1.42;;;22.30;72.00;;;;;;5092462;28;20127;-38
2021/08/15 03:48:57;;;;;;;1.45;1.33;;;22.30;72.00;;;;;;5092361;28;20122;-38
2021/08/15 03:51:23;;;;;;;2.35;1.60;;;22.30;72.00;;;;;;5092378;28;20048;-37
2021/08/15 03:53:49;;;;;;;1.50;1.40;;;22.30;72.00;;;;;;5092040;28;20127;-38
2021/08/15 03:56:15;;;;;;;1.73;1.33;;;22.30;72.70;;;;;;5091967;28;20048;-37
2021/08/15 03:58:41;;;;;;;1.63;1.42;;;22.30;72.00;;;;;;5091861;28;20141;-37
2021/08/15 04:01:06;;;;;;;2.33;1.45;;;22.30;72.00;;;;;;5091791;28;20124;-37
2021/08/15 04:03:32;;;;;;;2.55;1.50;;;22.30;72.00;;;;;;5091773;28;20072;-37
2021/08/15 04:06:00;;;;;;;1.42;1.33;;;22.30;72.00;;;;;;5092460;28;20139;-36
2021/08/15 04:08:26;;;;;;;2.28;1.48;;;22.30;72.00;;;;;;5092241;28;20074;-37
2021/08/15 04:10:53;;;;;;;2.35;1.52;;;22.30;72.00;;;;;;5091768;28;20044;-36
2021/08/15 04:13:18;;;;;;;1.45;1.17;;;22.30;72.00;;;;;;5090411;28;20039;-36
2021/08/15 04:15:44;;;;;;;1.70;1.25;;;22.30;72.10;;;;;;5090480;28;20094;-37
2021/08/15 04:18:10;;;;;;;1.70;1.40;;;22.30;72.00;;;;;;5091443;28;20052;-36
2021/08/15 04:20:36;;;;;;;1.48;1.10;;;22.30;72.00;;;;;;5090903;28;20226;-35
2021/08/15 04:23:03;;;;;;;1.60;1.42;;;22.30;72.00;;;;;;5091138;28;20135;-37
2021/08/15 04:25:28;;;;;;;2.53;1.65;;;22.30;72.00;;;;;;5090382;28;20048;-36
2021/08/15 04:27:54;;;;;;;1.70;1.38;;;22.30;72.10;;;;;;5090705;28;20472;-37
2021/08/15 04:30:20;;;;;;;1.90;1.30;;;22.30;72.10;;;;;;5090185;28;20111;-36
2021/08/15 04:32:45;;;;;;;2.67;1.30;;;22.40;72.10;;;;;;5091919;28;20051;-37
2021/08/15 04:35:11;;;;;;;1.90;1.33;;;22.30;72.10;;;;;;5091186;28;20044;-37
2021/08/15 04:37:37;;;;;;;1.80;1.70;;;22.30;72.00;;;;;;5091512;28;20044;-37
2021/08/15 04:40:04;;;;;;;1.45;1.23;;;22.30;72.00;;;;;;5091944;28;20060;-37
2021/08/15 04:42:30;;;;;;;1.17;0.98;;;22.30;72.00;;;;;;5092223;28;20048;-37
2021/08/15 04:44:59;;;;;;;1.73;1.30;;;22.30;72.00;;;;;;5090154;28;20052;-37
2021/08/15 04:47:25;;;;;;;1.88;1.20;;;22.30;72.00;;;;;;5093848;28;20147;-37
2021/08/15 04:49:54;;;;;;;1.50;1.40;;;22.30;72.00;;;;;;5095707;28;20476;-37
2021/08/15 04:52:20;;;;;;;1.70;1.42;;;22.30;72.10;;;;;;5095387;28;20067;-37
2021/08/15 04:54:45;;;;;;;1.30;1.10;;;22.30;72.10;;;;;;5095631;28;20044;-36
2021/08/15 04:57:11;;;;;;;1.40;1.20;;;22.20;72.00;;;;;;5095450;28;20079;-37
2021/08/15 04:59:40;;;;;;;1.23;0.95;;;22.30;72.10;;;;;;5094657;28;20043;-37
2021/08/15 05:02:06;;;;;;;1.75;1.38;;;22.30;72.10;;;;;;5095025;28;20043;-37
2021/08/15 05:04:33;;;;;;;1.98;1.50;;;22.30;72.10;;;;;;5095419;28;20044;-37
2021/08/15 05:07:01;;;;;;;1.85;1.75;;;22.30;72.10;;;;;;5094401;28;20062;-35
2021/08/15 05:09:27;;;;;;;1.30;1.20;;;22.30;72.10;;;;;;5094886;28;20048;-38
2021/08/15 05:11:53;;;;;;;1.48;1.33;;;22.30;72.10;;;;;;5095420;28;20051;-37
2021/08/15 05:14:19;;;;;;;1.67;1.20;;;22.30;72.10;;;;;;5095312;28;20075;-37
2021/08/15 05:16:44;;;;;;;1.75;1.40;;;22.30;72.10;;;;;;5094487;28;20048;-38
2021/08/15 05:19:10;;;;;;;2.25;1.35;;;22.30;72.10;;;;;;5095294;28;20071;-36
2021/08/15 05:21:36;;;;;;;1.40;1.30;;;22.30;72.10;;;;;;5094837;28;20059;-36
2021/08/15 05:24:01;;;;;;;1.75;1.10;;;22.30;72.10;;;;;;5095025;28;20047;-37
2021/08/15 05:26:28;;;;;;;1.85;1.30;;;22.30;72.10;;;;;;5094868;28;20056;-37
2021/08/15 05:28:53;;;;;;;1.50;1.15;;;22.30;72.00;;;;;;5094931;28;20476;-38
2021/08/15 05:31:19;;;;;;;1.73;1.30;;;22.30;72.00;;;;;;5093982;28;20391;-37
2021/08/15 05:33:46;;;;;;;1.42;1.17;;;22.30;72.00;;;;;;5094987;28;20676;-38
2021/08/15 05:36:11;;;;;;;1.75;1.40;;;22.30;72.10;;;;;;5093076;28;20072;-37
2021/08/15 05:38:38;;;;;;;2.00;1.27;;;22.30;72.10;;;;;;5094515;28;20044;-37
2021/08/15 05:41:03;;;;;;;1.50;1.23;;;22.30;72.00;;;;;;5094577;28;20498;-36
2021/08/15 05:43:29;;;;;;;1.33;1.20;;;22.20;72.00;;;;;;5094485;28;20460;-37
2021/08/15 05:45:55;;;;;;;1.30;1.17;;;22.30;72.00;;;;;;5093968;28;20032;-38
2021/08/15 05:48:20;;;;;;;1.42;1.30;;;22.30;72.00;;;;;;5093642;28;20044;-35
2021/08/15 05:50:46;;;;;;;1.50;1.25;;;22.30;72.00;;;;;;5094446;28;20514;-38
2021/08/15 05:53:12;;;;;;;1.40;1.20;;;22.30;72.00;;;;;;5094295;28;20548;-38
2021/08/15 05:55:38;;;;;;;2.10;1.10;;;22.30;72.00;;;;;;5094152;28;20111;-36
2021/08/15 05:58:04;;;;;;;1.50;1.33;;;22.30;72.00;;;;;;5093770;28;20432;-37
2021/08/15 06:00:30;;;;;;;1.70;1.33;;;22.30;72.00;;;;;;5093561;28;20052;-35
2021/08/15 06:02:56;;;;;;;1.08;0.98;;;22.30;72.00;;;;;;5093799;28;20118;-37
2021/08/15 06:05:22;;;;;;;1.63;1.27;;;22.30;72.00;;;;;;5094480;28;20048;-37
2021/08/15 06:07:47;;;;;;;1.63;1.20;;;22.30;72.70;;;;;;5093758;28;20066;-38
2021/08/15 06:10:13;;;;;;;1.40;1.30;;;22.30;72.00;;;;;;5093996;28;20052;-37
2021/08/15 06:12:39;;;;;;;1.50;1.25;;;22.30;72.00;;;;;;5094150;28;20048;-37
2021/08/15 06:15:12;;;;;;;1.90;1.65;;;22.30;72.10;;;;;;5093869;28;20068;-36
2021/08/15 06:17:39;;;;;;;2.08;1.45;;;22.30;72.00;;;;;;5093212;28;20480;-37
2021/08/15 06:20:06;;;;;;;1.45;1.13;;;22.30;72.00;;;;;;5093987;28;20048;-37
2021/08/15 06:22:40;;;;;;;1.45;1.25;;;22.20;72.00;;;;;;5094653;28;20048;-37
2021/08/15 06:25:07;;;;;;;1.42;1.05;;;22.30;72.10;;;;;;5094165;28;20051;-37
2021/08/15 06:27:33;;;;;;;1.73;1.30;;;22.20;72.00;;;;;;5084802;28;20193;-35
2021/08/15 06:29:59;;;;;;;1.75;1.33;;;22.30;72.00;;;;;;5089917;28;20089;-34
2021/08/15 06:32:25;;;;;;;1.65;1.40;;;22.30;72.10;;;;;;5092746;28;20052;-35
2021/08/15 06:34:50;;;;;;;1.70;1.48;;;22.20;72.00;;;;;;5093055;28;20044;-35
2021/08/15 06:37:16;;;;;;;1.60;1.23;;;22.30;72.10;;;;;;5093226;28;20067;-37
2021/08/15 06:39:42;;;;;;;2.88;1.58;;;22.30;72.00;;;;;;5093191;28;20056;-37
2021/08/15 06:42:08;;;;;;;1.98;1.27;;;22.20;72.00;;;;;;5093933;28;20048;-37
2021/08/15 06:44:37;;;;;;;1.63;1.20;;;22.20;72.00;;;;;;5093485;28;20059;-37
2021/08/15 06:47:03;;;;;;;1.33;1.17;;;22.30;72.10;;;;;;5093230;28;20067;-37
2021/08/15 06:49:29;;;;;;;1.77;1.25;;;22.30;72.10;;;;;;5092826;28;20079;-37
2021/08/15 06:51:55;;;;;;;1.65;1.33;;;22.30;72.00;;;;;;5093604;28;20071;-37
2021/08/15 06:54:20;;;;;;;1.73;1.20;;;22.30;72.00;;;;;;5093520;28;20539;-37
2021/08/15 06:56:46;;;;;;;2.10;1.40;;;22.30;72.00;;;;;;5076405;28;20040;-36
2021/08/15 06:59:13;;;;;;;1.83;1.42;;;22.30;72.00;;;;;;5093391;28;20119;-37
2021/08/15 07:01:39;;;;;;;1.42;1.23;;;22.30;72.00;;;;;;5093428;28;20391;-37
2021/08/15 07:04:05;;;;;;;1.50;1.15;;;22.30;72.00;;;;;;5093575;28;20044;-33
2021/08/15 07:06:30;;;;;;;1.27;1.08;;;22.30;72.00;;;;;;5092927;28;20101;-35
2021/08/15 07:08:56;;;;;;;1.45;1.20;;;22.30;72.00;;;;;;5090992;28;20054;-34
2021/08/15 07:11:22;;;;;;;1.38;1.13;;;22.30;72.00;;;;;;5093058;28;20055;-35
2021/08/15 07:13:47;;;;;;;1.83;1.25;;;22.30;72.00;;;;;;5093240;28;20039;-37
2021/08/15 07:16:13;;;;;;;1.70;1.25;;;22.30;72.00;;;;;;5093184;28;20500;-34
2021/08/15 07:18:39;;;;;;;1.83;1.23;;;22.30;72.00;;;;;;5092293;28;20047;-37
2021/08/15 07:21:05;;;;;;;1.83;1.33;;;22.30;72.00;;;;;;5092192;28;20047;-35
2021/08/15 07:23:30;;;;;;;1.73;1.20;;;22.30;72.00;;;;;;5089599;28;20060;-35
2021/08/15 07:25:56;;;;;;;1.70;1.35;;;22.30;72.00;;;;;;5086390;28;20040;-37
2021/08/15 07:28:24;;;;;;;1.55;1.30;;;22.30;72.00;;;;;;5087969;28;20047;-35
2021/08/15 07:30:50;;;;;;;1.40;1.13;;;22.30;72.00;;;;;;5091848;28;20051;-35
2021/08/15 07:33:16;;;;;;;2.00;1.33;;;22.30;72.00;;;;;;5092021;28;20044;-37
2021/08/15 07:35:42;;;;;;;1.33;1.13;;;22.40;72.00;;;;;;5092707;28;20044;-37
2021/08/15 07:38:08;;;;;;;1.23;1.00;;;22.40;72.00;;;;;;5092247;28;20044;-37
2021/08/15 07:40:33;;;;;;;1.90;1.20;;;22.40;72.00;;;;;;5091952;28;20116;-37
2021/08/15 07:42:59;;;;;;;1.63;1.15;;;22.40;72.00;;;;;;5092622;28;20048;-36
2021/08/15 07:45:27;;;;;;;1.88;1.40;;;22.40;72.00;;;;;;5092031;28;20048;-37
2021/08/15 07:47:53;;;;;;;1.30;1.20;;;22.40;71.90;;;;;;5088080;28;20344;-34
2021/08/15 07:50:20;;;;;;;1.48;1.23;;;22.40;71.90;;;;;;5086018;28;20514;-35
2021/08/15 07:52:45;;;;;;;1.40;1.30;;;22.40;72.00;;;;;;5091847;28;20063;-37
2021/08/15 07:55:11;;;;;;;2.13;1.40;;;22.40;71.90;;;;;;5090739;28;20106;-35
2021/08/15 07:57:37;;;;;;;1.45;1.27;;;22.40;71.90;;;;;;5091258;28;20040;-35
2021/08/15 08:00:06;;;;;;;1.23;1.13;;;22.40;71.90;;;;;;5091731;28;20040;-35
2021/08/15 08:02:31;;;;;;;1.65;1.17;;;22.40;71.90;;;;;;5091035;28;20385;-37
2021/08/15 08:04:57;;;;;;;1.77;1.27;;;22.50;71.90;;;;;;5092230;28;20047;-37
2021/08/15 08:07:24;;;;;;;1.73;1.40;;;22.50;71.90;;;;;;5090994;28;20539;-35
2021/08/15 08:09:51;;;;;;;1.30;1.20;;;22.50;71.90;;;;;;5090186;28;20113;-34
2021/08/15 08:12:18;;;;;;;1.30;0.95;;;22.50;71.90;;;;;;5090801;28;20127;-37
2021/08/15 08:14:45;;;;;;;1.20;1.10;;;22.50;71.80;;;;;;5091502;28;20040;-35
2021/08/15 08:17:14;;;;;;;1.20;0.98;;;22.50;71.90;;;;;;5090409;28;20048;-35
2021/08/15 08:19:41;;;;;;;1.67;1.20;;;22.50;71.80;;;;;;5090475;28;20048;-36
2021/08/15 08:22:07;;;;;;;1.42;1.05;;;22.50;71.80;;;;;;5091565;28;20093;-36
2021/08/15 08:24:33;;;;;;;2.15;1.23;;;22.50;71.80;;;;;;5091135;28;20059;-35
2021/08/15 08:26:59;;;;;;;1.33;1.20;;;22.50;71.80;;;;;;5090913;28;20044;-37
2021/08/15 08:29:24;;;;;;;1.08;0.90;;;22.50;71.80;;;;;;5091776;28;20059;-37
2021/08/15 08:31:50;;;;;;;1.10;1.00;;;22.60;71.80;;;;;;5091585;28;20116;-34
2021/08/15 08:34:16;;;;;;;1.20;0.90;;;22.60;71.90;;;;;;5091996;28;20051;-38
2021/08/15 08:36:41;;;;;;;1.05;0.90;;;22.60;71.80;;;;;;5089806;28;20096;-36
2021/08/15 08:39:07;;;;;;;1.85;1.42;;;22.60;71.80;;;;;;5090766;28;20048;-37
2021/08/15 08:41:33;;;;;;;1.50;1.13;;;22.60;71.80;;;;;;5090048;28;20076;-36
2021/08/15 08:44:00;;;;;;;1.00;1.00;;;22.60;71.80;;;;;;5091855;28;20048;-38
2021/08/15 08:46:26;;;;;;;1.05;0.90;;;22.60;71.80;;;;;;5091537;28;20411;-37
2021/08/15 08:48:52;;;;;;;1.65;1.15;;;22.60;71.70;;;;;;5090161;28;20123;-36
2021/08/15 08:51:20;;;;;;;1.48;1.15;;;22.60;71.70;;;;;;5091193;28;20127;-38
2021/08/15 08:53:49;;;;;;;1.05;0.90;;;22.70;71.80;;;;;;5091878;28;20052;-36
2021/08/15 08:56:16;;;;;;;1.67;1.08;;;22.70;71.80;;;;;;5089168;28;20051;-37
2021/08/15 08:58:42;;;;;;;1.60;1.23;;;22.70;71.70;;;;;;5090748;28;20048;-37
2021/08/15 09:01:12;;;;;;;1.20;1.10;;;22.70;71.60;;;;;;5091404;28;20058;-37
2021/08/15 09:03:42;;;;;;;1.42;1.10;;;22.70;71.60;;;;;;5090455;28;20048;-36
2021/08/15 09:06:23;;;;;;;1.52;1.00;;;22.70;71.60;;;;;;5091439;28;20397;-38
2021/08/15 09:08:50;;;;;;;1.00;0.85;;;22.80;71.60;;;;;;5091326;28;20177;-38
2021/08/15 09:11:18;;;;;;;1.05;0.98;;;22.80;71.60;;;;;;5089350;28;20172;-38
2021/08/15 09:13:58;;;;;;;1.48;1.05;;;22.80;71.60;;;;;;5090990;28;20048;-37
2021/08/15 09:16:23;;;;;;;1.35;1.10;;;22.80;71.50;;;;;;5091774;28;20052;-37
2021/08/15 09:18:49;;;;;;;0.90;0.90;;;22.80;71.50;;;;;;5089802;28;20070;-37
2021/08/15 09:21:28;;;;;;;1.10;1.00;;;22.80;71.50;;;;;;5091115;28;20086;-38
2021/08/15 09:24:00;;;;;;;1.67;1.00;;;22.80;71.40;;;;;;5088853;28;20060;-38
2021/08/15 09:26:26;;;;;;;1.35;0.90;;;22.80;71.40;;;;;;5090247;28;20480;-37
2021/08/15 09:28:52;;;;;;;1.70;1.10;;;22.80;71.40;;;;;;5090505;28;20047;-36
2021/08/15 09:31:24;;;;;;;1.27;1.17;;;22.80;71.40;;;;;;5090993;28;20050;-37
2021/08/15 09:33:52;;;;;;;1.50;1.10;;;22.90;71.40;;;;;;5091072;28;20051;-37
2021/08/15 09:36:39;;;;;;;1.23;0.73;;;22.90;71.30;;;;;;5094926;28;20040;-36
2021/08/15 09:39:06;;;;;;;1.10;1.00;;;22.90;71.20;;;;;;5092010;28;20064;-37
2021/08/15 09:41:38;;;;;;;1.58;1.08;;;22.90;71.20;;;;;;5094502;28;20040;-37
2021/08/15 09:44:28;;;;;;;1.00;0.90;;;22.90;71.20;;;;;;5093188;28;20396;-37
2021/08/15 09:47:12;;;;;;;1.70;1.05;;;22.90;71.10;;;;;;5093801;28;20070;-37
2021/08/15 09:49:48;;;;;;;1.60;1.05;;;22.90;71.80;;;;;;5092536;28;20044;-37
2021/08/15 09:52:16;;;;;;;1.00;0.82;;;23.00;71.10;;;;;;5091070;28;20047;-37
2021/08/15 09:54:56;;;;;;;1.13;0.90;;;23.00;71.10;;;;;;5093712;28;20068;-36
2021/08/15 09:57:35;;;;;;;1.30;1.13;;;23.00;71.10;;;;;;5093674;28;20036;-36
2021/08/15 10:00:05;;;;;;;1.10;0.95;;;23.00;71.00;;;;;;5092591;28;20487;-37
2021/08/15 10:02:32;;;;;;;1.83;0.88;;;23.00;71.10;;;;;;5091630;28;20056;-37
2021/08/15 10:04:58;;;;;;;1.67;1.05;;;23.00;71.00;;;;;;5094333;28;20446;-37
2021/08/15 10:07:27;;;;;;;1.02;0.93;;;23.10;71.00;;;;;;5094402;28;20040;-37
2021/08/15 10:09:53;;;;;;;1.80;1.15;;;23.10;70.90;;;;;;5093009;28;20066;-35
2021/08/15 10:12:18;;;;;;;1.35;1.00;;;23.10;70.90;;;;;;5094036;28;20048;-38
2021/08/15 10:14:44;;;;;;;1.30;1.20;;;23.10;70.90;;;;;;5093417;28;20101;-36
2021/08/15 10:17:14;;;;;;;1.02;0.90;;;23.10;70.80;;;;;;5093094;28;20403;-37
2021/08/15 10:19:46;;;;;;;1.23;1.00;;;23.10;70.80;;;;;;5091237;28;20488;-37
2021/08/15 10:22:20;;;;;;;1.23;0.80;;;23.10;70.70;;;;;;5093200;28;20047;-37
2021/08/15 10:24:49;;;;;;;0.98;0.90;;;23.20;70.70;;;;;;5093063;28;20081;-37
2021/08/15 10:27:40;;;;;;;1.02;0.90;;;23.20;70.70;;;;;;5093443;28;20047;-37
2021/08/15 10:30:18;;;;;;;1.58;1.10;;;23.20;70.70;;;;;;5091618;28;20048;-37
2021/08/15 10:32:56;;;;;;;1.63;1.13;;;23.20;70.60;;;;;;5093112;28;20069;-37
2021/08/15 10:35:24;;;;;;;1.05;0.90;;;23.20;70.50;;;;;;5092406;28;20036;-37
2021/08/15 10:37:58;;;;;;;1.50;0.90;;;23.20;70.50;;;;;;5093407;28;20048;-36
2021/08/15 10:40:48;;;;;;;1.27;1.13;;;23.20;70.50;;;;;;5093176;28;20055;-37
2021/08/15 10:43:23;;;;;;;0.90;0.90;;;23.30;70.50;;;;;;5093372;28;20765;-37
2021/08/15 10:46:08;;;;;;;1.52;1.05;;;23.20;70.30;;;;;;5092630;28;20075;-37
2021/08/15 10:48:52;;;;;;;1.83;1.23;;;23.30;70.40;;;;;;5092763;28;20047;-38
2021/08/15 10:51:43;;;;;;;2.10;1.33;;;23.40;70.40;;;;;;5092567;28;20052;-37
2021/08/15 10:54:33;;;;;;;1.52;1.20;;;23.40;70.30;;;;;;5092717;28;20048;-37
2021/08/15 10:57:04;;;;;;;1.92;1.15;;;23.40;70.30;;;;;;5086589;28;20480;-36
2021/08/15 10:59:32;;;;;;;1.20;0.95;;;23.40;70.30;;;;;;5090963;28;20408;-37
2021/08/15 11:02:11;;;;;;;1.58;1.30;;;23.40;70.20;;;;;;5091929;28;20052;-37
2021/08/15 11:04:39;;;;;;;1.27;1.17;;;23.40;70.20;;;;;;5093240;28;20055;-37
2021/08/15 11:07:06;;;;;;;1.75;1.33;;;23.40;70.10;;;;;;5093213;28;20079;-37
2021/08/15 11:09:57;;;;;;;1.63;0.90;;;23.50;70.10;;;;;;5092017;28;20044;-37
2021/08/15 11:12:24;;;;;;;1.08;0.82;;;23.50;70.00;;;;;;5082223;28;20539;-37
2021/08/15 11:15:09;;;;;;;1.65;1.30;;;23.50;70.00;;;;;;5092656;28;20052;-35
2021/08/15 11:17:38;;;;;;;2.30;1.35;;;23.50;70.00;;;;;;5091989;28;20047;-37
2021/08/15 11:20:30;;;;;;;2.83;1.38;;;23.50;70.00;;;;;;5091796;28;20036;-36
2021/08/15 11:23:19;;;;;;;1.45;1.20;;;23.50;69.90;;;;;;5091406;28;20063;-36
2021/08/15 11:25:46;;;;;;;1.65;1.20;;;23.50;69.90;;;;;;5091680;28;20040;-34
2021/08/15 11:28:13;;;;;;;1.48;1.20;;;23.50;69.90;;;;;;5090985;28;20044;-36
2021/08/15 11:30:39;;;;;;;1.48;1.10;;;23.50;69.80;;;;;;5079210;28;20487;-38
2021/08/15 11:33:08;;;;;;;1.25;1.00;;;23.50;69.80;;;;;;5091173;28;20040;-35
2021/08/15 11:35:43;;;;;;;1.17;1.08;;;23.50;69.80;;;;;;5092487;28;20157;-36
2021/08/15 11:38:12;;;;;;;0.90;0.90;;;23.60;69.80;;;;;;5091587;28;20529;-36
2021/08/15 11:40:49;;;;;;;2.58;1.33;;;23.60;69.80;;;;;;5091022;28;20056;-36
2021/08/15 11:43:24;;;;;;;2.33;1.30;;;23.60;69.70;;;;;;5092013;28;20040;-36
2021/08/15 11:45:54;;;;;;;1.23;1.03;;;23.60;69.70;;;;;;5091665;28;20060;-36
2021/08/15 11:48:21;;;;;;;1.20;0.90;;;23.60;69.70;;;;;;5092016;28;20048;-37
2021/08/15 11:50:56;;;;;;;1.50;1.10;;;23.60;69.70;;;;;;5091802;28;20083;-37
2021/08/15 11:53:33;;;;;;;1.73;1.10;;;23.70;69.70;;;;;;5090239;28;20044;-35
2021/08/15 11:56:07;;;;;;;1.27;1.10;;;23.60;69.60;;;;;;5091557;28;20123;-35
2021/08/15 11:58:33;;;;;;;1.30;1.10;;;23.70;69.60;;;;;;5090975;28;20496;-35
2021/08/15 12:01:08;;;;;;;2.38;1.13;;;23.60;69.10;;;;;;5091208;28;20444;-36
2021/08/15 12:03:34;;;;;;;1.48;1.08;;;23.70;69.60;;;;;;5091026;28;20127;-36
2021/08/15 12:06:07;;;;;;;1.27;1.15;;;23.60;69.50;;;;;;5091982;28;20044;-36
2021/08/15 12:08:34;;;;;;;1.05;0.95;;;23.70;69.60;;;;;;5083521;28;20077;-36
2021/08/15 12:11:00;;;;;;;1.48;0.90;;;23.70;69.60;;;;;;5088559;28;20093;-36
2021/08/15 12:13:36;;;;;;;2.03;1.02;;;23.70;69.50;;;;;;5091617;28;20408;-35
2021/08/15 12:16:02;;;;;;;1.45;0.90;;;23.70;69.50;;;;;;5091233;28;20071;-37
2021/08/15 12:18:47;;;;;;;1.20;0.95;;;23.70;69.50;;;;;;5090966;28;20443;-36
2021/08/15 12:21:15;;;;;;;2.20;1.17;;;23.70;69.40;;;;;;5091924;28;20044;-36
2021/08/15 12:23:58;;;;;;;0.80;0.80;;;23.70;69.50;;;;;;5088935;28;20040;-37
2021/08/15 12:26:25;;;;;;;1.42;0.90;;;23.70;69.40;;;;;;5091678;28;20040;-35
2021/08/15 12:28:57;;;;;;;1.45;1.20;;;23.80;69.50;;;;;;5091478;28;20052;-37
2021/08/15 12:31:28;;;;;;;1.42;1.13;;;23.70;69.40;;;;;;5088912;28;20036;-36
2021/08/15 12:34:17;;;;;;;1.60;1.02;;;23.80;69.40;;;;;;5090507;28;20048;-35
2021/08/15 12:36:45;;;;;;;1.10;1.00;;;23.80;69.40;;;;;;5070286;28;20111;-34
2021/08/15 12:39:11;;;;;;;1.00;0.90;;;23.80;69.40;;;;;;5081528;28;20134;-35
2021/08/15 12:41:46;;;;;;;1.63;0.90;;;23.80;69.40;;;;;;5089095;28;20047;-37
2021/08/15 12:44:14;;;;;;;1.48;0.90;;;23.80;69.40;;;;;;5084746;28;20389;-36
2021/08/15 12:46:40;;;;;;;1.33;0.95;;;23.80;69.30;;;;;;5078854;28;20048;-37
2021/08/15 12:49:24;;;;;;;1.35;1.10;;;23.80;69.40;;;;;;5090873;28;20060;-37
2021/08/15 12:52:06;;;;;;;1.52;1.20;;;23.80;69.30;;;;;;5087599;28;20052;-36
2021/08/15 12:54:32;;;;;;;1.42;1.23;;;23.80;69.30;;;;;;5090254;28;20468;-36